Terminal Aerodrome Forecast
Issued by NWS Albany, NY

Home | Current Version | Previous Version | Text Only | Print | Product List | Glossary On
Versions: 1 2 3 4 5 6 7 8 9 10 11 12 13 14 15 16 17 18 19 20 21 22
372
FTUS41 KALY 021136
TAFALB
TAF
KALB 021136Z 0212/0312 17005KT P6SM BKN009 OVC015
      TEMPO 0212/0215 SCT009 OVC015
     FM021500 17006KT 4SM -RA BR OVC010
     FM021800 18006KT 3SM -RA BR OVC007
     FM022000 20005KT P6SM -DZ OVC010=

USA.gov is the U.S. government's official web portal to all federal, state and local government web resources and services.